createdAt,value
2019-05-30T00:00:30.044Z,10.55
2019-05-30T00:02:58.566Z,10.54
2019-05-30T00:05:26.419Z,10.52
2019-05-30T00:07:54.193Z,10.47
2019-05-30T00:10:22.815Z,10.54
2019-05-30T00:12:50.431Z,10.54
2019-05-30T00:15:18.177Z,10.45
2019-05-30T00:17:45.893Z,10.46
2019-05-30T00:20:13.948Z,10.43
2019-05-30T00:22:41.594Z,10.41
2019-05-30T00:25:09.338Z,10.44
2019-05-30T00:27:37.201Z,10.44
2019-05-30T00:30:22.861Z,10.39
2019-05-30T00:32:36.041Z,10.34
2019-05-30T00:35:04.241Z,10.31
2019-05-30T00:37:31.840Z,10.26
2019-05-30T00:39:59.903Z,10.23
2019-05-30T00:42:27.801Z,10.25
2019-05-30T00:44:55.829Z,10.23
2019-05-30T00:47:23.657Z,10.26
2019-05-30T00:49:51.455Z,10.24
2019-05-30T00:52:19.188Z,10.17
2019-05-30T00:54:46.790Z,10.10
2019-05-30T00:57:15.490Z,10.10
2019-05-30T00:59:43.221Z,9.96
2019-05-30T01:02:11.061Z,10.10
2019-05-30T01:04:38.838Z,10.05
2019-05-30T01:07:07.236Z,10.01
2019-05-30T01:09:35.162Z,10.02
2019-05-30T01:12:03.129Z,10.06
2019-05-30T01:14:30.905Z,10.03
2019-05-30T01:16:59.014Z,10.02
2019-05-30T01:19:26.924Z,10.02
2019-05-30T01:21:54.658Z,9.93
2019-05-30T01:24:22.781Z,9.82
2019-05-30T01:26:50.480Z,9.88
2019-05-30T01:29:18.182Z,9.89
2019-05-30T01:31:46.273Z,9.88
2019-05-30T01:34:14.009Z,9.87
2019-05-30T01:36:41.637Z,9.70
2019-05-30T01:39:09.334Z,9.94
2019-05-30T01:41:36.997Z,9.93
2019-05-30T01:44:04.583Z,9.96
2019-05-30T01:46:33.292Z,9.93
2019-05-30T01:49:02.236Z,9.91
2019-05-30T01:51:30.135Z,9.93
2019-05-30T01:53:58.367Z,9.95
2019-05-30T01:56:26.102Z,9.95
2019-05-30T01:58:53.693Z,9.91
2019-05-30T02:01:25.040Z,9.94
2019-05-30T02:03:51.262Z,9.89
2019-05-30T02:06:19.589Z,9.83
2019-05-30T02:08:47.581Z,9.80
2019-05-30T02:11:15.239Z,9.76
2019-05-30T02:13:42.816Z,9.70
2019-05-30T02:16:10.473Z,9.76
2019-05-30T02:18:38.036Z,9.74
2019-05-30T02:21:05.925Z,9.72
2019-05-30T02:23:33.665Z,9.69
2019-05-30T02:26:02.233Z,9.68
2019-05-30T02:28:30.688Z,9.65
2019-05-30T02:30:58.262Z,9.65
2019-05-30T02:33:26.831Z,9.64
2019-05-30T02:35:54.480Z,9.66
2019-05-30T02:38:22.005Z,9.65
2019-05-30T02:40:49.717Z,9.66
2019-05-30T02:43:17.330Z,9.65
2019-05-30T02:45:45.050Z,9.63
2019-05-30T02:48:12.679Z,9.59
2019-05-30T02:50:40.394Z,9.59
2019-05-30T02:53:10.125Z,9.59
2019-05-30T02:55:37.601Z,9.62
2019-05-30T02:58:06.186Z,9.60
2019-05-30T03:00:36.286Z,9.64
2019-05-30T03:03:06.698Z,9.63
2019-05-30T03:05:34.874Z,9.67
2019-05-30T03:08:04.898Z,9.73
2019-05-30T03:10:32.263Z,9.71
2019-05-30T03:13:01.746Z,9.69
2019-05-30T03:15:29.931Z,9.70
2019-05-30T03:17:57.637Z,9.71
2019-05-30T03:20:25.185Z,9.78
2019-05-30T03:22:52.932Z,9.74
2019-05-30T03:25:20.576Z,9.71
2019-05-30T03:27:48.197Z,9.68
2019-05-30T03:30:26.104Z,9.66
2019-05-30T03:33:05.340Z,9.70
2019-05-30T03:35:26.867Z,9.74
2019-05-30T03:37:44.927Z,9.79
2019-05-30T03:40:12.987Z,9.81
2019-05-30T03:42:40.634Z,9.82
2019-05-30T03:45:11.237Z,9.80
2019-05-30T03:47:39.744Z,9.84
2019-05-30T03:50:09.843Z,9.86
2019-05-30T03:52:38.109Z,9.88
2019-05-30T03:55:09.229Z,9.91
2019-05-30T03:57:42.542Z,9.95
2019-05-30T04:00:16.003Z,10.00
2019-05-30T04:03:01.824Z,10.00
2019-05-30T04:05:35.329Z,10.04
2019-05-30T04:08:04.790Z,10.03
2019-05-30T04:10:35.763Z,10.00
2019-05-30T04:13:30.209Z,10.00
2019-05-30T04:15:58.266Z,10.05
2019-05-30T04:18:26.153Z,10.09
2019-05-30T04:20:53.929Z,10.09
2019-05-30T04:23:21.889Z,10.03
2019-05-30T04:25:49.618Z,10.08
2019-05-30T04:28:18.705Z,10.12
2019-05-30T04:30:46.470Z,10.16
2019-05-30T04:33:26.304Z,10.17
2019-05-30T04:35:43.602Z,10.17
2019-05-30T04:38:12.710Z,10.17
2019-05-30T04:40:41.692Z,10.25
2019-05-30T04:43:09.283Z,10.21
2019-05-30T04:45:36.913Z,10.28
2019-05-30T04:48:04.800Z,10.29
2019-05-30T04:50:32.510Z,10.31
2019-05-30T04:53:00.061Z,10.30
2019-05-30T04:55:27.733Z,10.29
2019-05-30T04:57:55.391Z,10.31
2019-05-30T05:00:23.111Z,10.30
2019-05-30T05:02:50.725Z,10.38
2019-05-30T05:05:23.992Z,10.37
2019-05-30T05:07:48.011Z,10.41
2019-05-30T05:10:16.095Z,10.42
2019-05-30T05:12:43.865Z,10.53
2019-05-30T05:15:12.364Z,10.56
2019-05-30T05:17:40.155Z,10.59
2019-05-30T05:20:08.122Z,10.56
2019-05-30T05:22:35.790Z,10.57
2019-05-30T05:25:03.717Z,10.67
2019-05-30T05:27:31.406Z,10.71
2019-05-30T05:29:59.095Z,10.71
2019-05-30T05:32:27.303Z,10.73
2019-05-30T05:34:55.024Z,10.76
2019-05-30T05:37:23.298Z,10.77
2019-05-30T05:39:51.222Z,10.75
2019-05-30T05:42:20.191Z,10.72
2019-05-30T05:44:48.112Z,10.67
2019-05-30T05:47:16.419Z,10.67
2019-05-30T05:49:44.384Z,10.72
2019-05-30T05:52:12.262Z,10.77
2019-05-30T05:54:40.174Z,10.80
2019-05-30T05:57:07.801Z,10.78
2019-05-30T05:59:35.547Z,10.82
2019-05-30T06:02:03.329Z,10.80
2019-05-30T06:04:31.056Z,10.80
2019-05-30T06:06:58.809Z,10.70
2019-05-30T06:09:26.487Z,10.95
2019-05-30T06:11:54.231Z,11.05
2019-05-30T06:14:21.993Z,11.13
2019-05-30T06:16:49.809Z,11.11
2019-05-30T06:19:17.475Z,11.11
2019-05-30T06:21:54.156Z,11.17
2019-05-30T06:24:15.090Z,11.09
2019-05-30T06:26:42.779Z,11.08
2019-05-30T06:29:10.376Z,11.10
2019-05-30T06:31:37.985Z,11.14
2019-05-30T06:34:06.305Z,11.15
2019-05-30T06:36:33.986Z,11.23
2019-05-30T06:39:02.222Z,11.21
2019-05-30T06:41:31.196Z,11.18
2019-05-30T06:43:58.855Z,11.18
2019-05-30T06:46:26.467Z,11.21
2019-05-30T06:48:54.427Z,11.31
2019-05-30T06:51:22.920Z,11.35
2019-05-30T06:53:50.958Z,11.41
2019-05-30T06:56:18.987Z,11.43
2019-05-30T06:58:49.017Z,11.48
2019-05-30T07:01:16.231Z,11.56
2019-05-30T07:03:43.986Z,11.66
2019-05-30T07:06:12.523Z,11.65
2019-05-30T07:08:40.816Z,11.70
2019-05-30T07:11:08.927Z,11.75
2019-05-30T07:13:36.499Z,11.72
2019-05-30T07:16:04.202Z,11.70
2019-05-30T07:18:34.888Z,11.74
2019-05-30T07:21:01.428Z,11.84
2019-05-30T07:23:30.134Z,12.01
2019-05-30T07:25:58.124Z,12.15
2019-05-30T07:28:25.861Z,12.25
2019-05-30T07:30:53.661Z,12.27
2019-05-30T07:33:21.313Z,12.27
2019-05-30T07:35:48.978Z,12.29
2019-05-30T07:38:16.628Z,12.53
2019-05-30T07:40:44.383Z,12.71
2019-05-30T07:43:12.395Z,12.89
2019-05-30T07:45:40.417Z,12.84
2019-05-30T07:48:08.256Z,12.82
2019-05-30T07:50:36.137Z,12.90
2019-05-30T07:53:04.323Z,13.09
2019-05-30T07:55:33.133Z,13.38
2019-05-30T07:58:01.543Z,13.63
2019-05-30T08:00:29.646Z,13.88
2019-05-30T08:02:57.278Z,14.17
2019-05-30T08:05:25.175Z,14.22
2019-05-30T08:07:53.118Z,14.57
2019-05-30T08:10:20.878Z,14.89
2019-05-30T08:12:48.520Z,15.41
2019-05-30T08:15:17.049Z,15.75
2019-05-30T08:17:44.802Z,15.90
2019-05-30T08:20:14.079Z,16.05
2019-05-30T08:22:41.729Z,16.41
2019-05-30T08:25:09.984Z,16.78
2019-05-30T08:27:38.677Z,17.08
2019-05-30T08:30:07.135Z,17.29
2019-05-30T08:32:35.229Z,17.23
2019-05-30T08:35:03.278Z,17.10
2019-05-30T08:37:32.024Z,17.30
2019-05-30T08:40:00.591Z,17.88
2019-05-30T08:42:29.495Z,18.42
2019-05-30T08:44:57.381Z,18.41
2019-05-30T08:47:24.981Z,18.58
2019-05-30T08:49:52.643Z,18.70
2019-05-30T08:52:20.669Z,19.01
2019-05-30T08:54:48.549Z,19.74
2019-05-30T08:57:16.574Z,20.04
2019-05-30T08:59:44.921Z,20.22
2019-05-30T09:02:12.826Z,20.37
2019-05-30T09:04:41.885Z,20.46
2019-05-30T09:07:09.686Z,20.62
2019-05-30T09:09:38.166Z,20.46
2019-05-30T09:12:05.988Z,20.53
2019-05-30T09:14:33.826Z,20.60
2019-05-30T09:17:01.529Z,20.19
2019-05-30T09:19:29.324Z,20.09
2019-05-30T09:21:57.002Z,19.78
2019-05-30T09:24:24.852Z,19.49
2019-05-30T09:26:52.589Z,19.12
2019-05-30T09:29:20.243Z,19.10
2019-05-30T09:31:48.680Z,19.33
2019-05-30T09:34:16.612Z,18.77
2019-05-30T09:36:44.763Z,18.70
2019-05-30T09:39:12.636Z,18.54
2019-05-30T09:41:41.819Z,18.68
2019-05-30T09:44:10.050Z,18.75
2019-05-30T09:46:37.867Z,18.39
2019-05-30T09:49:05.657Z,18.37
2019-05-30T09:51:33.502Z,18.55
2019-05-30T09:54:01.209Z,18.73
2019-05-30T09:56:29.210Z,18.73
2019-05-30T09:58:56.984Z,18.69
2019-05-30T10:01:24.718Z,18.80
2019-05-30T10:03:52.497Z,19.09
2019-05-30T10:06:28.918Z,19.19
2019-05-30T10:08:51.194Z,19.38
2019-05-30T10:11:20.327Z,19.40
2019-05-30T10:13:50.779Z,19.47
2019-05-30T10:16:18.395Z,19.49
2019-05-30T10:18:47.375Z,19.73
2019-05-30T10:21:17.044Z,19.78
2019-05-30T10:23:45.856Z,20.59
2019-05-30T10:26:14.308Z,21.30
2019-05-30T10:28:41.924Z,21.62
2019-05-30T10:31:09.688Z,21.58
2019-05-30T10:33:37.294Z,21.52
2019-05-30T10:36:05.006Z,21.38
2019-05-30T10:38:32.565Z,21.23
2019-05-30T10:41:00.207Z,21.10
2019-05-30T10:43:27.778Z,20.91
2019-05-30T10:45:55.535Z,20.56
2019-05-30T10:48:23.292Z,20.30
2019-05-30T10:50:50.918Z,20.42
2019-05-30T10:53:18.853Z,19.85
2019-05-30T10:55:48.087Z,19.76
2019-05-30T10:58:15.813Z,19.80
2019-05-30T11:00:48.447Z,20.21
2019-05-30T11:03:17.233Z,20.38
2019-05-30T11:05:50.684Z,20.29
2019-05-30T11:08:21.370Z,20.43
2019-05-30T11:10:50.597Z,19.67
2019-05-30T11:13:19.409Z,19.82
2019-05-30T11:15:48.752Z,19.75
2019-05-30T11:18:17.193Z,19.57
2019-05-30T11:20:45.151Z,19.51
2019-05-30T11:23:13.499Z,19.40
2019-05-30T11:25:41.109Z,19.43
2019-05-30T11:28:09.384Z,19.27
2019-05-30T11:30:37.292Z,19.27
2019-05-30T11:33:05.364Z,19.35
2019-05-30T11:35:33.045Z,19.10
2019-05-30T11:38:00.877Z,19.41
2019-05-30T11:40:29.534Z,19.91
2019-05-30T11:42:59.822Z,19.63
2019-05-30T11:45:27.868Z,19.61
2019-05-30T11:47:55.792Z,19.98
2019-05-30T11:50:23.889Z,20.28
2019-05-30T11:52:51.811Z,19.84
2019-05-30T11:55:19.556Z,19.74
2019-05-30T11:57:47.500Z,19.91
2019-05-30T12:00:15.424Z,20.03
2019-05-30T12:02:43.451Z,19.81
2019-05-30T12:05:11.259Z,20.23
2019-05-30T12:07:39.355Z,20.20
2019-05-30T12:10:08.724Z,20.14
2019-05-30T12:12:36.716Z,20.32
2019-05-30T12:15:05.201Z,20.36
2019-05-30T12:17:32.863Z,20.25
2019-05-30T12:20:01.654Z,20.29
2019-05-30T12:22:29.924Z,20.08
2019-05-30T12:24:57.780Z,19.72
2019-05-30T12:27:26.032Z,19.43
2019-05-30T12:29:54.086Z,19.49
2019-05-30T12:32:21.957Z,19.30
2019-05-30T12:34:49.709Z,19.05
2019-05-30T12:37:17.441Z,18.99
2019-05-30T12:39:46.240Z,19.27
2019-05-30T12:42:13.939Z,19.54
2019-05-30T12:44:41.604Z,19.51
2019-05-30T12:47:09.389Z,19.90
2019-05-30T12:49:37.615Z,19.92
2019-05-30T12:52:06.008Z,20.12
2019-05-30T12:54:33.808Z,20.27
2019-05-30T12:57:02.569Z,20.27
2019-05-30T12:59:30.467Z,20.03
2019-05-30T13:01:58.944Z,19.79
2019-05-30T13:04:27.267Z,19.35
2019-05-30T13:06:56.432Z,19.05
2019-05-30T13:09:25.011Z,18.95
2019-05-30T13:11:54.192Z,18.42
2019-05-30T13:14:22.380Z,18.26
2019-05-30T13:16:50.361Z,17.85
2019-05-30T13:19:18.439Z,18.13
2019-05-30T13:21:46.660Z,18.11
2019-05-30T13:24:14.545Z,17.97
2019-05-30T13:26:42.536Z,17.88
2019-05-30T13:29:10.697Z,17.98
2019-05-30T13:31:38.572Z,18.01
2019-05-30T13:34:07.173Z,18.20
2019-05-30T13:36:35.142Z,18.19
2019-05-30T13:39:05.245Z,18.19
2019-05-30T13:41:33.196Z,18.07
2019-05-30T13:44:03.227Z,18.23
2019-05-30T13:46:31.381Z,18.01
2019-05-30T13:49:00.670Z,17.66
2019-05-30T13:51:28.731Z,17.51
2019-05-30T13:53:56.703Z,17.31
2019-05-30T13:56:24.794Z,17.30
2019-05-30T13:58:53.940Z,17.13
2019-05-30T14:01:22.057Z,16.93
2019-05-30T14:03:50.372Z,16.99
2019-05-30T14:06:17.880Z,17.06
2019-05-30T14:08:45.879Z,16.92
2019-05-30T14:11:13.922Z,16.88
2019-05-30T14:13:43.895Z,16.61
2019-05-30T14:16:12.218Z,16.69
2019-05-30T14:18:40.508Z,16.65
2019-05-30T14:21:09.353Z,16.65
2019-05-30T14:23:37.886Z,16.81
2019-05-30T14:26:07.300Z,16.85
2019-05-30T14:28:35.459Z,16.96
2019-05-30T14:31:03.895Z,17.15
2019-05-30T14:33:32.602Z,17.19
2019-05-30T14:36:04.013Z,17.24
2019-05-30T14:38:29.649Z,17.17
2019-05-30T14:40:57.269Z,17.16
2019-05-30T14:43:24.959Z,17.16
2019-05-30T14:45:52.630Z,17.01
2019-05-30T14:48:20.348Z,17.11
2019-05-30T14:50:47.956Z,17.15
2019-05-30T14:53:17.075Z,17.25
2019-05-30T14:55:45.227Z,17.49
2019-05-30T14:58:13.470Z,17.50
2019-05-30T15:00:41.795Z,17.64
2019-05-30T15:03:15.437Z,17.61
2019-05-30T15:05:41.404Z,17.82
2019-05-30T15:08:10.561Z,17.92
2019-05-30T15:10:38.459Z,18.05
2019-05-30T15:13:07.500Z,17.79
2019-05-30T15:15:35.282Z,17.54
2019-05-30T15:18:03.379Z,17.52
2019-05-30T15:20:31.263Z,17.61
2019-05-30T15:22:59.401Z,17.50
2019-05-30T15:25:27.031Z,17.63
2019-05-30T15:27:54.832Z,17.61
2019-05-30T15:30:22.428Z,17.54
2019-05-30T15:32:50.232Z,17.41
2019-05-30T15:35:19.166Z,17.20
2019-05-30T15:37:48.537Z,16.87
2019-05-30T15:40:17.261Z,16.75
2019-05-30T15:42:45.340Z,16.89
2019-05-30T15:45:14.094Z,16.75
2019-05-30T15:47:42.279Z,16.65
2019-05-30T15:50:11.823Z,16.49
2019-05-30T15:52:40.104Z,16.39
2019-05-30T15:55:09.119Z,16.40
2019-05-30T15:57:37.087Z,16.44
2019-05-30T16:00:05.881Z,16.36
2019-05-30T16:02:33.504Z,16.30
2019-05-30T16:05:01.225Z,16.32
2019-05-30T16:07:30.190Z,16.30
2019-05-30T16:09:58.438Z,16.29
2019-05-30T16:12:26.084Z,16.29
2019-05-30T16:14:53.765Z,16.15
2019-05-30T16:17:21.770Z,15.98
2019-05-30T16:19:49.669Z,15.81
2019-05-30T16:22:18.352Z,15.64
2019-05-30T16:24:46.264Z,15.57
2019-05-30T16:27:15.659Z,15.50
2019-05-30T16:29:44.872Z,15.33
2019-05-30T16:32:13.800Z,15.21
2019-05-30T16:34:41.448Z,15.08
2019-05-30T16:37:09.439Z,15.04
2019-05-30T16:39:37.476Z,15.01
2019-05-30T16:42:05.567Z,14.92
2019-05-30T16:44:33.415Z,14.83
2019-05-30T16:47:01.470Z,14.69
2019-05-30T16:49:29.463Z,14.54
2019-05-30T16:51:57.353Z,14.44
2019-05-30T16:54:25.389Z,14.44
2019-05-30T16:56:53.442Z,14.36
2019-05-30T16:59:21.328Z,14.33
2019-05-30T17:01:57.958Z,14.27
2019-05-30T17:04:20.932Z,14.25
2019-05-30T17:06:49.128Z,14.19
2019-05-30T17:09:17.195Z,14.18
2019-05-30T17:11:45.238Z,14.20
2019-05-30T17:14:13.073Z,14.20
2019-05-30T17:16:41.056Z,14.18
2019-05-30T17:19:08.953Z,14.13
2019-05-30T17:21:37.104Z,14.08
2019-05-30T17:24:05.154Z,14.05
2019-05-30T17:26:33.145Z,14.01
2019-05-30T17:29:01.115Z,13.92
2019-05-30T17:31:29.281Z,13.85
2019-05-30T17:33:57.162Z,13.84
2019-05-30T17:36:26.235Z,13.84
2019-05-30T17:38:54.299Z,13.79
2019-05-30T17:41:22.762Z,13.73
2019-05-30T17:43:50.622Z,13.68
2019-05-30T17:46:19.230Z,13.68
2019-05-30T17:48:47.120Z,13.65
2019-05-30T17:51:15.246Z,13.64
2019-05-30T17:53:43.351Z,13.58
2019-05-30T17:56:11.368Z,13.39
2019-05-30T17:58:39.656Z,13.28
2019-05-30T18:01:07.429Z,13.21
2019-05-30T18:03:35.594Z,13.14
2019-05-30T18:06:03.638Z,13.03
2019-05-30T18:08:31.641Z,12.97
2019-05-30T18:10:59.564Z,13.02
2019-05-30T18:13:27.217Z,13.03
2019-05-30T18:15:55.091Z,13.12
2019-05-30T18:18:23.198Z,13.03
2019-05-30T18:20:51.224Z,12.99
2019-05-30T18:23:19.490Z,13.07
2019-05-30T18:25:47.566Z,12.99
2019-05-30T18:28:15.721Z,13.03
2019-05-30T18:30:43.949Z,13.02
2019-05-30T18:33:11.751Z,12.98
2019-05-30T18:35:40.497Z,12.94
2019-05-30T18:38:08.089Z,12.86
2019-05-30T18:40:37.067Z,12.83
2019-05-30T18:43:05.111Z,12.84
2019-05-30T18:45:40.065Z,12.80
2019-05-30T18:48:08.939Z,12.75
2019-05-30T18:50:36.763Z,12.67
2019-05-30T18:53:04.881Z,12.61
2019-05-30T18:55:32.694Z,12.57
2019-05-30T18:58:00.531Z,12.55
2019-05-30T19:00:29.167Z,12.48
2019-05-30T19:02:57.192Z,12.34
2019-05-30T19:05:25.002Z,12.37
2019-05-30T19:07:52.672Z,12.32
2019-05-30T19:10:20.468Z,12.35
2019-05-30T19:12:48.099Z,12.31
2019-05-30T19:15:16.156Z,12.32
2019-05-30T19:17:44.277Z,12.42
2019-05-30T19:20:12.369Z,12.42
2019-05-30T19:22:41.554Z,12.42
2019-05-30T19:25:09.711Z,12.38
2019-05-30T19:27:38.613Z,12.38
2019-05-30T19:30:07.707Z,12.32
2019-05-30T19:32:35.419Z,12.25
2019-05-30T19:35:03.727Z,12.19
2019-05-30T19:37:31.393Z,12.10
2019-05-30T19:39:59.006Z,12.07
2019-05-30T19:42:27.270Z,12.02
2019-05-30T19:44:55.005Z,12.00
2019-05-30T19:47:22.571Z,12.07
2019-05-30T19:49:50.252Z,12.05
2019-05-30T19:52:17.884Z,11.98
2019-05-30T19:54:45.777Z,12.06
2019-05-30T19:57:13.416Z,12.09
2019-05-30T19:59:41.080Z,12.16
2019-05-30T20:02:08.914Z,12.16
2019-05-30T20:04:36.581Z,12.13
2019-05-30T20:07:04.192Z,12.11
2019-05-30T20:09:32.477Z,12.06
2019-05-30T20:12:04.834Z,12.05
2019-05-30T20:14:30.946Z,12.03
2019-05-30T20:17:00.801Z,12.07
2019-05-30T20:19:28.514Z,11.99
2019-05-30T20:21:56.155Z,11.97
2019-05-30T20:24:23.936Z,11.98
2019-05-30T20:26:52.174Z,12.07
2019-05-30T20:29:20.367Z,12.00
2019-05-30T20:31:48.423Z,12.01
2019-05-30T20:34:18.007Z,11.95
2019-05-30T20:36:46.934Z,11.95
2019-05-30T20:39:15.090Z,11.95
2019-05-30T20:41:43.350Z,11.97
2019-05-30T20:44:12.904Z,12.02
2019-05-30T20:46:41.258Z,11.97
2019-05-30T20:49:09.309Z,11.87
2019-05-30T20:51:38.670Z,11.82
2019-05-30T20:54:07.190Z,11.84
2019-05-30T20:56:35.427Z,11.82
2019-05-30T20:59:03.436Z,11.80
2019-05-30T21:01:31.378Z,11.81
2019-05-30T21:03:59.386Z,11.84
2019-05-30T21:06:28.131Z,11.79
2019-05-30T21:08:56.860Z,11.71
2019-05-30T21:11:25.204Z,11.68
2019-05-30T21:13:53.514Z,11.65
2019-05-30T21:16:21.545Z,11.67
2019-05-30T21:18:50.970Z,11.74
2019-05-30T21:21:19.001Z,11.74
2019-05-30T21:23:47.007Z,11.71
2019-05-30T21:26:15.187Z,11.74
2019-05-30T21:28:43.352Z,11.61
2019-05-30T21:31:11.519Z,11.70
2019-05-30T21:33:40.571Z,11.70
2019-05-30T21:36:09.524Z,11.67
2019-05-30T21:38:37.857Z,11.67
2019-05-30T21:41:06.091Z,11.60
2019-05-30T21:43:34.072Z,11.56
2019-05-30T21:46:02.175Z,11.56
2019-05-30T21:48:30.434Z,11.51
2019-05-30T21:50:58.463Z,11.51
2019-05-30T21:53:26.506Z,11.46
2019-05-30T21:55:54.351Z,11.35
2019-05-30T21:58:22.452Z,11.54
2019-05-30T22:01:37.541Z,11.54
2019-05-30T22:04:07.560Z,11.52
2019-05-30T22:06:35.997Z,11.57
2019-05-30T22:09:07.109Z,11.61
2019-05-30T22:11:35.242Z,11.53
2019-05-30T22:14:03.232Z,11.47
2019-05-30T22:16:31.347Z,11.50
2019-05-30T22:18:59.456Z,11.48
2019-05-30T22:21:27.502Z,11.54
2019-05-30T22:23:55.582Z,11.49
2019-05-30T22:26:23.687Z,11.49
2019-05-30T22:28:52.925Z,11.52
2019-05-30T22:31:21.283Z,11.48
2019-05-30T22:33:51.259Z,11.51
2019-05-30T22:36:19.553Z,11.56
2019-05-30T22:38:47.512Z,11.52
2019-05-30T22:41:15.484Z,11.51
2019-05-30T22:43:43.870Z,11.48
2019-05-30T22:46:12.165Z,11.47
2019-05-30T22:48:40.111Z,11.45
2019-05-30T22:51:07.999Z,11.45
2019-05-30T22:53:36.206Z,11.49
2019-05-30T22:56:04.474Z,11.55
2019-05-30T22:58:32.583Z,11.51
2019-05-30T23:01:00.791Z,11.53
2019-05-30T23:03:28.936Z,11.53
2019-05-30T23:05:57.570Z,11.46
2019-05-30T23:08:25.834Z,11.42
2019-05-30T23:10:53.975Z,11.39
2019-05-30T23:13:22.291Z,11.40
2019-05-30T23:15:50.438Z,11.40
2019-05-30T23:18:18.327Z,11.39
2019-05-30T23:20:46.679Z,11.36
2019-05-30T23:23:14.853Z,11.40
2019-05-30T23:25:42.837Z,11.44
2019-05-30T23:28:10.819Z,11.47
2019-05-30T23:30:38.961Z,11.42
2019-05-30T23:33:07.035Z,11.42
2019-05-30T23:35:35.042Z,11.44
2019-05-30T23:38:02.930Z,11.42
2019-05-30T23:40:30.993Z,11.44
2019-05-30T23:42:59.319Z,11.45
2019-05-30T23:45:27.530Z,11.41
2019-05-30T23:47:55.630Z,11.40
2019-05-30T23:50:23.578Z,11.41
2019-05-30T23:52:52.505Z,11.42
2019-05-30T23:55:20.599Z,11.36
2019-05-30T23:57:48.682Z,11.34
